createdAt,value
2017-04-21T00:01:57.668Z,970.55
2017-04-21T00:04:10.015Z,970.52
2017-04-21T00:06:12.410Z,970.5
2017-04-21T00:08:24.720Z,970.43
2017-04-21T00:10:32.036Z,970.41
2017-04-21T00:12:44.301Z,970.39
2017-04-21T00:14:56.517Z,970.37
2017-04-21T00:17:08.835Z,970.33
2017-04-21T00:19:21.219Z,970.33
2017-04-21T00:21:33.500Z,970.3
2017-04-21T00:23:45.751Z,970.32
2017-04-21T00:25:57.994Z,970.26
2017-04-21T00:28:10.525Z,970.21
2017-04-21T00:30:23.199Z,970.16
2017-04-21T00:32:35.831Z,970.18
2017-04-21T00:34:48.104Z,970.18
2017-04-21T00:36:55.516Z,970.2
2017-04-21T00:39:07.818Z,970.21
2017-04-21T00:41:15.190Z,970.16
2017-04-21T00:43:27.464Z,970.13
2017-04-21T00:45:39.791Z,970.11
2017-04-21T00:47:52.080Z,970.1
2017-04-21T00:49:59.366Z,970.08
2017-04-21T00:52:11.576Z,970.03
2017-04-21T00:54:23.844Z,970.07
2017-04-21T00:56:36.202Z,970.02
2017-04-21T00:58:48.534Z,970.04
2017-04-21T01:01:00.828Z,970.05
2017-04-21T01:03:13.262Z,970.04
2017-04-21T01:05:25.668Z,970.06
2017-04-21T01:07:33.220Z,970.03
2017-04-21T01:09:45.457Z,970.03
2017-04-21T01:11:57.611Z,970.01
2017-04-21T01:14:10.000Z,969.99
2017-04-21T01:16:22.289Z,969.97
2017-04-21T01:18:34.601Z,969.98
2017-04-21T01:20:46.921Z,969.95
2017-04-21T01:22:59.186Z,969.96
2017-04-21T01:25:11.434Z,969.99
2017-04-21T01:27:23.724Z,969.97
2017-04-21T01:29:36.004Z,969.98
2017-04-21T01:31:48.263Z,969.94
2017-04-21T01:34:00.406Z,969.92
2017-04-21T01:36:12.662Z,969.95
2017-04-21T01:38:25.047Z,969.91
2017-04-21T01:40:37.884Z,969.95
2017-04-21T01:42:50.265Z,969.95
2017-04-21T01:44:57.620Z,969.88
2017-04-21T01:47:00.023Z,969.87
2017-04-21T01:49:07.240Z,969.85
2017-04-21T01:51:19.460Z,969.86
2017-04-21T01:53:31.835Z,969.85
2017-04-21T01:55:44.058Z,969.83
2017-04-21T01:57:56.357Z,969.83
2017-04-21T02:00:08.678Z,969.81
2017-04-21T02:02:20.848Z,969.75
2017-04-21T02:04:33.130Z,969.78
2017-04-21T02:06:45.432Z,969.77
2017-04-21T02:08:57.736Z,969.76
2017-04-21T02:11:04.972Z,969.71
2017-04-21T02:13:17.683Z,969.72
2017-04-21T02:15:30.614Z,969.73
2017-04-21T02:17:38.215Z,969.74
2017-04-21T02:19:50.494Z,969.75
2017-04-21T02:22:02.807Z,969.8
2017-04-21T02:24:10.117Z,969.79
2017-04-21T02:26:22.358Z,969.81
2017-04-21T02:28:36.096Z,969.78
2017-04-21T02:30:43.510Z,969.77
2017-04-21T02:32:53.046Z,969.78
2017-04-21T02:34:59.224Z,969.77
2017-04-21T02:37:11.476Z,969.75
2017-04-21T02:39:28.716Z,969.77
2017-04-21T02:41:41.038Z,969.72
2017-04-21T02:44:00.796Z,969.68
2017-04-21T02:46:13.049Z,969.68
2017-04-21T02:48:32.920Z,969.66
2017-04-21T02:50:45.714Z,969.65
2017-04-21T02:53:05.753Z,969.65
2017-04-21T02:55:18.009Z,969.66
2017-04-21T02:57:38.097Z,969.64
2017-04-21T02:59:50.429Z,969.6
2017-04-21T03:02:02.722Z,969.61
2017-04-21T03:04:23.525Z,969.6
2017-04-21T03:06:35.840Z,969.58
2017-04-21T03:08:44.613Z,969.56
2017-04-21T03:10:56.913Z,969.57
2017-04-21T03:13:16.850Z,969.61
2017-04-21T03:15:29.291Z,969.56
2017-04-21T03:17:41.761Z,969.58
2017-04-21T03:19:54.161Z,969.61
2017-04-21T03:22:06.473Z,969.61
2017-04-21T03:24:21.506Z,969.6
2017-04-21T03:26:34.024Z,969.61
2017-04-21T03:28:48.263Z,969.58
2017-04-21T03:31:00.644Z,969.6
2017-04-21T03:33:13.204Z,969.59
2017-04-21T03:35:25.702Z,969.58
2017-04-21T03:37:44.806Z,969.62
2017-04-21T03:39:52.144Z,969.55
2017-04-21T03:42:04.411Z,969.57
2017-04-21T03:44:17.385Z,969.56
2017-04-21T03:46:24.641Z,969.57
2017-04-21T03:48:44.979Z,969.61
2017-04-21T03:50:59.136Z,969.56
2017-04-21T03:53:06.588Z,969.55
2017-04-21T03:55:18.836Z,969.58
2017-04-21T03:57:39.020Z,969.51
2017-04-21T03:59:50.820Z,969.58
2017-04-21T04:02:03.477Z,969.56
2017-04-21T04:04:19.923Z,969.5
2017-04-21T04:06:32.123Z,969.49
2017-04-21T04:08:47.211Z,969.47
2017-04-21T04:10:54.534Z,969.48
2017-04-21T04:13:10.047Z,969.48
2017-04-21T04:15:22.352Z,969.49
2017-04-21T04:17:34.587Z,969.46
2017-04-21T04:19:48.948Z,969.51
2017-04-21T04:22:01.215Z,969.51
2017-04-21T04:24:17.830Z,969.53
2017-04-21T04:26:34.134Z,969.57
2017-04-21T04:28:49.245Z,969.53
2017-04-21T04:31:01.555Z,969.57
2017-04-21T04:33:09.390Z,969.61
2017-04-21T04:35:22.210Z,969.5
2017-04-21T04:37:34.532Z,969.51
2017-04-21T04:39:50.747Z,969.59
2017-04-21T04:42:03.165Z,969.55
2017-04-21T04:44:15.371Z,969.56
2017-04-21T04:46:34.063Z,969.55
2017-04-21T04:48:48.089Z,969.5
2017-04-21T04:51:00.330Z,969.52
2017-04-21T04:53:12.589Z,969.56
2017-04-21T04:55:24.925Z,969.5
2017-04-21T04:57:45.167Z,969.5
2017-04-21T04:59:59.582Z,969.54
2017-04-21T05:02:06.992Z,969.5
2017-04-21T05:04:19.104Z,969.58
2017-04-21T05:06:35.336Z,969.57
2017-04-21T05:08:48.094Z,969.61
2017-04-21T05:10:55.870Z,969.61
2017-04-21T05:13:08.085Z,969.6
2017-04-21T05:15:20.350Z,969.58
2017-04-21T05:17:32.716Z,969.6
2017-04-21T05:19:47.007Z,969.58
2017-04-21T05:22:04.616Z,969.53
2017-04-21T05:24:20.183Z,969.48
2017-04-21T05:26:32.434Z,969.49
2017-04-21T05:28:44.715Z,969.52
2017-04-21T05:30:57.232Z,969.53
2017-04-21T05:33:09.732Z,969.53
2017-04-21T05:35:29.998Z,969.56
2017-04-21T05:37:43.257Z,969.54
2017-04-21T05:39:55.708Z,969.47
2017-04-21T05:42:18.116Z,969.53
2017-04-21T05:44:30.903Z,969.55
2017-04-21T05:46:43.357Z,969.56
2017-04-21T05:48:55.854Z,969.62
2017-04-21T05:51:08.150Z,969.64
2017-04-21T05:53:29.241Z,969.63
2017-04-21T05:55:41.857Z,969.56
2017-04-21T05:57:54.123Z,969.56
2017-04-21T06:00:06.424Z,969.6
2017-04-21T06:02:18.609Z,969.59
2017-04-21T06:04:30.903Z,969.63
2017-04-21T06:06:43.262Z,969.62
2017-04-21T06:08:55.469Z,969.65
2017-04-21T06:11:08.933Z,969.62
2017-04-21T06:13:21.407Z,969.54
2017-04-21T06:15:33.650Z,969.52
2017-04-21T06:17:41.313Z,969.48
2017-04-21T06:19:54.005Z,969.49
2017-04-21T06:22:01.332Z,969.53
2017-04-21T06:24:13.837Z,969.52
2017-04-21T06:26:27.111Z,969.53
2017-04-21T06:28:39.521Z,969.59
2017-04-21T06:30:51.916Z,969.55
2017-04-21T06:33:04.373Z,969.57
2017-04-21T06:35:11.616Z,969.56
2017-04-21T06:37:31.408Z,969.62
2017-04-21T06:39:42.160Z,969.62
2017-04-21T06:41:55.826Z,969.67
2017-04-21T06:44:11.964Z,969.58
2017-04-21T06:46:24.428Z,969.54
2017-04-21T06:48:31.855Z,969.54
2017-04-21T06:50:44.395Z,969.56
2017-04-21T06:52:47.220Z,969.54
2017-04-21T06:54:59.667Z,969.56
2017-04-21T06:57:11.951Z,969.6
2017-04-21T06:59:26.804Z,969.55
2017-04-21T07:01:41.198Z,969.44
2017-04-21T07:03:56.066Z,969.44
2017-04-21T07:06:09.870Z,969.42
2017-04-21T07:08:22.238Z,969.41
2017-04-21T07:10:39.073Z,969.4
2017-04-21T07:12:56.209Z,969.38
2017-04-21T07:15:10.025Z,969.44
2017-04-21T07:17:30.221Z,969.45
2017-04-21T07:19:42.704Z,969.45
2017-04-21T07:21:55.325Z,969.46
2017-04-21T07:24:09.960Z,969.46
2017-04-21T07:26:22.612Z,969.48
2017-04-21T07:28:35.154Z,969.49
2017-04-21T07:30:47.615Z,969.5
2017-04-21T07:32:54.993Z,969.53
2017-04-21T07:35:07.314Z,969.58
2017-04-21T07:37:09.714Z,969.59
2017-04-21T07:39:17.012Z,969.57
2017-04-21T07:41:24.485Z,969.58
2017-04-21T07:43:37.019Z,969.53
2017-04-21T07:45:49.275Z,969.5
2017-04-21T07:48:01.677Z,969.48
2017-04-21T07:50:14.016Z,969.48
2017-04-21T07:52:26.665Z,969.5
2017-04-21T07:54:39.156Z,969.52
2017-04-21T07:56:53.525Z,969.55
2017-04-21T07:59:06.586Z,969.51
2017-04-21T08:01:09.006Z,969.51
2017-04-21T08:03:17.015Z,969.53
2017-04-21T08:05:24.535Z,969.52
2017-04-21T08:07:31.778Z,969.56
2017-04-21T08:09:43.958Z,969.51
2017-04-21T08:11:56.180Z,969.55
2017-04-21T08:14:03.414Z,969.55
2017-04-21T08:16:15.727Z,969.58
2017-04-21T08:18:28.401Z,969.56
2017-04-21T08:20:43.005Z,969.56
2017-04-21T08:23:04.827Z,969.52
2017-04-21T08:25:17.673Z,969.5
2017-04-21T08:27:37.007Z,969.49
2017-04-21T08:29:49.451Z,969.5
2017-04-21T08:31:56.784Z,969.4
2017-04-21T08:34:09.302Z,969.4
2017-04-21T08:36:21.976Z,969.31
2017-04-21T08:38:29.963Z,969.35
2017-04-21T08:40:42.342Z,969.35
2017-04-21T08:42:54.604Z,969.32
2017-04-21T08:45:09.460Z,969.21
2017-04-21T08:47:21.722Z,969.15
2017-04-21T08:49:29.241Z,969.12
2017-04-21T08:51:41.545Z,969.09
2017-04-21T08:53:53.868Z,969.09
2017-04-21T08:56:06.171Z,969.06
2017-04-21T08:58:21.361Z,969.08
2017-04-21T09:00:29.408Z,969.04
2017-04-21T09:02:42.338Z,969.06
2017-04-21T09:04:54.647Z,969.03
2017-04-21T09:07:06.895Z,969.02
2017-04-21T09:09:19.288Z,969.05
2017-04-21T09:11:32.186Z,969.03
2017-04-21T09:13:44.522Z,969.05
2017-04-21T09:15:56.815Z,969.05
2017-04-21T09:18:09.682Z,969.12
2017-04-21T09:20:16.999Z,969.07
2017-04-21T09:22:29.445Z,969.05
2017-04-21T09:24:41.940Z,969.01
2017-04-21T09:26:54.221Z,969.02
2017-04-21T09:29:01.579Z,968.89
2017-04-21T09:31:08.846Z,968.83
2017-04-21T09:32:51.514Z,968.67
2017-04-21T09:34:48.994Z,968.55
2017-04-21T09:36:36.427Z,967.71
2017-04-21T09:38:43.824Z,967.99
2017-04-21T09:40:56.129Z,967.88
2017-04-21T09:42:58.571Z,967.88
2017-04-21T09:44:57.173Z,968.02
2017-04-21T09:47:09.652Z,968.09
2017-04-21T09:49:21.996Z,968.12
2017-04-21T09:51:29.281Z,968.1
2017-04-21T09:53:16.777Z,968.04
2017-04-21T09:54:59.508Z,967.88
2017-04-21T09:56:37.194Z,968.03
2017-04-21T09:58:15.176Z,968.03
2017-04-21T09:59:52.854Z,967.9
2017-04-21T10:01:30.521Z,967.81
2017-04-21T10:03:08.185Z,967.8
2017-04-21T10:04:46.072Z,967.83
2017-04-21T10:06:23.800Z,967.78
2017-04-21T10:08:06.577Z,967.8
2017-04-21T10:10:08.868Z,967.88
2017-04-21T10:12:21.134Z,967.86
2017-04-21T10:14:33.530Z,967.88
2017-04-21T10:16:45.856Z,967.87
2017-04-21T10:18:59.620Z,967.96
2017-04-21T10:21:12.292Z,967.88
2017-04-21T10:23:24.614Z,967.85
2017-04-21T10:25:36.965Z,967.79
2017-04-21T10:27:49.307Z,967.78
2017-04-21T10:29:56.663Z,967.82
2017-04-21T10:32:09.098Z,967.86
2017-04-21T10:34:21.384Z,967.83
2017-04-21T10:36:34.692Z,967.9
2017-04-21T10:38:46.954Z,967.93
2017-04-21T10:40:59.242Z,967.94
2017-04-21T10:43:11.517Z,967.87
2017-04-21T10:45:23.834Z,967.96
2017-04-21T10:47:36.125Z,967.91
2017-04-21T10:49:48.456Z,967.88
2017-04-21T10:52:00.825Z,967.86
2017-04-21T10:54:13.648Z,967.86
2017-04-21T10:56:25.879Z,967.95
2017-04-21T10:58:38.182Z,967.98
2017-04-21T11:00:45.584Z,968.01
2017-04-21T11:02:57.996Z,967.94
2017-04-21T11:05:10.396Z,967.92
2017-04-21T11:07:22.793Z,967.77
2017-04-21T11:09:30.164Z,967.71
2017-04-21T11:11:42.441Z,967.66
2017-04-21T11:13:54.810Z,967.63
2017-04-21T11:16:07.140Z,967.62
2017-04-21T11:18:19.441Z,967.54
2017-04-21T11:20:31.772Z,967.51
2017-04-21T11:22:42.348Z,967.47
2017-04-21T11:24:54.644Z,967.47
2017-04-21T11:27:06.928Z,967.5
2017-04-21T11:29:19.666Z,967.47
2017-04-21T11:31:32.438Z,967.45
2017-04-21T11:33:44.951Z,967.46
2017-04-21T11:35:57.251Z,967.43
2017-04-21T11:38:09.715Z,967.55
2017-04-21T11:40:22.195Z,967.57
2017-04-21T11:42:34.471Z,967.53
2017-04-21T11:44:46.887Z,967.51
2017-04-21T11:46:59.129Z,967.49
2017-04-21T11:49:06.605Z,967.54
2017-04-21T11:51:18.919Z,967.53
2017-04-21T11:53:31.297Z,967.57
2017-04-21T11:55:43.690Z,967.49
2017-04-21T11:57:55.983Z,967.49
2017-04-21T12:00:08.481Z,967.5
2017-04-21T12:02:15.920Z,967.38
2017-04-21T12:04:28.461Z,967.35
2017-04-21T12:06:40.847Z,967.32
2017-04-21T12:08:53.338Z,967.26
2017-04-21T12:11:05.655Z,967.34
2017-04-21T12:13:17.920Z,967.36
2017-04-21T12:15:30.176Z,967.29
2017-04-21T12:17:42.493Z,967.29
2017-04-21T12:19:54.829Z,967.22
2017-04-21T12:22:07.156Z,967.25
2017-04-21T12:24:19.806Z,967.25
2017-04-21T12:26:32.303Z,967.14
2017-04-21T12:28:44.618Z,967.14
2017-04-21T12:30:57.002Z,967.05
2017-04-21T12:33:09.654Z,967.08
2017-04-21T12:35:22.150Z,966.99
2017-04-21T12:37:34.492Z,967.13
2017-04-21T12:39:46.915Z,966.89
2017-04-21T12:41:59.306Z,966.92
2017-04-21T12:44:12.298Z,966.87
2017-04-21T12:46:24.732Z,966.97
2017-04-21T12:48:37.171Z,966.96
2017-04-21T12:50:49.571Z,966.91
2017-04-21T12:53:02.091Z,966.94
2017-04-21T12:55:14.538Z,966.85
2017-04-21T12:57:26.966Z,966.76
2017-04-21T12:59:32.682Z,966.75
2017-04-21T13:01:44.990Z,966.63
2017-04-21T13:03:57.300Z,966.59
2017-04-21T13:06:09.842Z,966.6
2017-04-21T13:08:18.384Z,966.47
2017-04-21T13:10:30.889Z,966.54
2017-04-21T13:12:38.371Z,966.44
2017-04-21T13:14:53.052Z,966.35
2017-04-21T13:17:05.539Z,966.32
2017-04-21T13:19:18.072Z,966.44
2017-04-21T13:21:30.466Z,966.44
2017-04-21T13:23:42.940Z,966.33
2017-04-21T13:25:55.397Z,966.42
2017-04-21T13:28:08.002Z,966.27
2017-04-21T13:30:20.341Z,966.23
2017-04-21T13:32:32.672Z,966.22
2017-04-21T13:34:45.216Z,966.25
2017-04-21T13:36:57.623Z,966.36
2017-04-21T13:39:10.060Z,966.2
2017-04-21T13:41:22.306Z,966.21
2017-04-21T13:43:35.764Z,966.05
2017-04-21T13:45:48.169Z,965.97
2017-04-21T13:48:00.542Z,965.92
2017-04-21T13:50:12.942Z,965.96
2017-04-21T13:52:25.283Z,965.88
2017-04-21T13:54:37.899Z,965.78
2017-04-21T13:56:50.493Z,965.71
2017-04-21T13:59:02.835Z,965.77
2017-04-21T14:01:10.345Z,965.78
2017-04-21T14:03:22.713Z,965.82
2017-04-21T14:05:30.251Z,965.68
2017-04-21T14:07:42.701Z,965.66
2017-04-21T14:09:50.020Z,965.62
2017-04-21T14:12:02.348Z,965.54
2017-04-21T14:14:14.929Z,965.57
2017-04-21T14:16:27.491Z,965.47
2017-04-21T14:18:40.162Z,965.52
2017-04-21T14:20:47.528Z,965.49
2017-04-21T14:22:54.913Z,965.55
2017-04-21T14:25:02.245Z,965.48
2017-04-21T14:27:09.668Z,965.54
2017-04-21T14:29:22.301Z,965.51
2017-04-21T14:31:35.192Z,965.51
2017-04-21T14:33:51.000Z,965.41
2017-04-21T14:36:03.390Z,965.47
2017-04-21T14:38:15.629Z,965.43
2017-04-21T14:40:27.971Z,965.34
2017-04-21T14:42:40.303Z,965.28
2017-04-21T14:44:52.651Z,965.34
2017-04-21T14:47:04.975Z,965.27
2017-04-21T14:49:17.235Z,965.24
2017-04-21T14:51:29.520Z,965.19
2017-04-21T14:53:41.836Z,965.2
2017-04-21T14:55:55.240Z,965.12
2017-04-21T14:58:07.570Z,965.14
2017-04-21T15:00:19.983Z,965.1
2017-04-21T15:02:32.214Z,965.09
2017-04-21T15:04:44.808Z,965.05
2017-04-21T15:06:52.330Z,965.02
2017-04-21T15:09:04.733Z,965.03
2017-04-21T15:11:17.089Z,964.94
2017-04-21T15:13:29.553Z,964.93
2017-04-21T15:15:41.919Z,965
2017-04-21T15:17:54.248Z,964.97
2017-04-21T15:20:07.021Z,964.96
2017-04-21T15:22:09.469Z,964.89
2017-04-21T15:24:21.835Z,964.96
2017-04-21T15:26:34.160Z,964.93
2017-04-21T15:28:46.494Z,964.87
2017-04-21T15:30:59.239Z,964.89
2017-04-21T15:33:06.747Z,964.92
2017-04-21T15:35:14.132Z,964.91
2017-04-21T15:37:26.778Z,964.93
2017-04-21T15:39:39.509Z,964.86
2017-04-21T15:41:52.172Z,964.87
2017-04-21T15:44:04.557Z,964.89
2017-04-21T15:46:11.939Z,964.89
2017-04-21T15:48:22.622Z,964.91
2017-04-21T15:50:34.929Z,964.89
2017-04-21T15:52:47.431Z,964.85
2017-04-21T15:55:01.718Z,964.93
2017-04-21T15:57:14.197Z,964.84
2017-04-21T15:59:26.540Z,964.88
2017-04-21T16:01:39.009Z,964.9
2017-04-21T16:03:51.963Z,964.88
2017-04-21T16:05:59.408Z,964.9
2017-04-21T16:08:06.872Z,964.93
2017-04-21T16:10:19.743Z,964.89
2017-04-21T16:12:32.158Z,964.93
2017-04-21T16:14:39.442Z,964.96
2017-04-21T16:16:51.942Z,964.93
2017-04-21T16:18:59.875Z,964.94
2017-04-21T16:21:12.184Z,964.98
2017-04-21T16:23:24.560Z,965.02
2017-04-21T16:25:31.933Z,965.04
2017-04-21T16:27:45.389Z,965.03
2017-04-21T16:29:52.665Z,965.03
2017-04-21T16:31:59.969Z,965.05
2017-04-21T16:34:07.298Z,965.01
2017-04-21T16:36:19.538Z,964.99
2017-04-21T16:38:29.752Z,964.96
2017-04-21T16:40:42.065Z,964.99
2017-04-21T16:42:54.433Z,965.01
2017-04-21T16:45:02.287Z,965.11
2017-04-21T16:47:14.654Z,965.07
2017-04-21T16:49:27.210Z,965.05
2017-04-21T16:51:34.783Z,965.01
2017-04-21T16:53:47.519Z,965.03
2017-04-21T16:55:59.934Z,965.01
2017-04-21T16:58:12.208Z,964.99
2017-04-21T17:00:24.439Z,964.94
2017-04-21T17:02:36.820Z,964.92
2017-04-21T17:04:49.145Z,964.88
2017-04-21T17:07:01.439Z,964.89
2017-04-21T17:09:13.779Z,964.86
2017-04-21T17:11:21.200Z,964.85
2017-04-21T17:13:33.549Z,964.85
2017-04-21T17:15:45.800Z,964.91
2017-04-21T17:17:58.357Z,964.91
2017-04-21T17:20:05.749Z,964.92
2017-04-21T17:22:18.079Z,964.92
2017-04-21T17:24:30.398Z,964.88
2017-04-21T17:26:42.880Z,964.88
2017-04-21T17:28:50.638Z,964.88
2017-04-21T17:30:57.981Z,964.88
2017-04-21T17:33:10.460Z,964.85
2017-04-21T17:35:17.818Z,964.84
2017-04-21T17:37:30.083Z,964.84
2017-04-21T17:39:37.526Z,964.84
2017-04-21T17:41:44.828Z,964.82
2017-04-21T17:43:52.131Z,964.81
2017-04-21T17:45:59.536Z,964.79
2017-04-21T17:48:11.910Z,964.79
2017-04-21T17:50:24.445Z,964.76
2017-04-21T17:52:36.984Z,964.72
2017-04-21T17:54:49.955Z,964.7
2017-04-21T17:56:57.518Z,964.74
2017-04-21T17:59:09.900Z,964.74
2017-04-21T18:01:22.395Z,964.71
2017-04-21T18:03:35.018Z,964.72
2017-04-21T18:05:47.562Z,964.76
2017-04-21T18:07:59.967Z,964.72
2017-04-21T18:10:12.534Z,964.77
2017-04-21T18:12:24.892Z,964.76
2017-04-21T18:14:37.285Z,964.75
2017-04-21T18:16:44.676Z,964.81
2017-04-21T18:18:57.247Z,964.79
2017-04-21T18:21:09.638Z,964.81
2017-04-21T18:23:17.119Z,964.79
2017-04-21T18:25:24.524Z,964.85
2017-04-21T18:27:36.904Z,964.84
2017-04-21T18:29:44.327Z,964.83
2017-04-21T18:31:56.707Z,964.85
2017-04-21T18:34:09.084Z,964.83
2017-04-21T18:36:21.381Z,964.88
2017-04-21T18:38:34.050Z,964.89
2017-04-21T18:40:46.541Z,964.94
2017-04-21T18:42:59.113Z,964.94
2017-04-21T18:45:09.688Z,964.95
2017-04-21T18:47:23.037Z,964.95
2017-04-21T18:49:35.364Z,964.98
2017-04-21T18:51:49.405Z,964.99
2017-04-21T18:54:01.731Z,965.02
2017-04-21T18:56:14.000Z,965
2017-04-21T18:58:21.338Z,965.06
2017-04-21T19:00:33.634Z,964.99
2017-04-21T19:02:46.002Z,965.02
2017-04-21T19:04:53.477Z,965.09
2017-04-21T19:07:05.751Z,965.03
2017-04-21T19:09:18.099Z,965.07
2017-04-21T19:11:30.430Z,965.08
2017-04-21T19:13:38.613Z,965.07
2017-04-21T19:15:51.303Z,965.06
2017-04-21T19:17:59.068Z,965.09
2017-04-21T19:20:01.553Z,965.11
2017-04-21T19:22:14.314Z,965.12
2017-04-21T19:24:26.596Z,965.11
2017-04-21T19:26:38.940Z,965.1
2017-04-21T19:28:52.278Z,965.07
2017-04-21T19:31:01.126Z,965.08
2017-04-21T19:33:15.636Z,965.09
2017-04-21T19:35:28.172Z,965.08
2017-04-21T19:37:40.553Z,965.06
2017-04-21T19:39:51.238Z,965.05
2017-04-21T19:42:03.787Z,965.08
2017-04-21T19:44:10.303Z,965.09
2017-04-21T19:46:22.714Z,965.05
2017-04-21T19:48:35.463Z,965.08
2017-04-21T19:50:43.139Z,965.11
2017-04-21T19:52:56.226Z,965.1
2017-04-21T19:55:11.107Z,965.14
2017-04-21T19:57:23.655Z,965.08
2017-04-21T19:59:36.042Z,965.12
2017-04-21T20:01:48.604Z,965.1
2017-04-21T20:04:01.073Z,965.09
2017-04-21T20:06:14.528Z,965.11
2017-04-21T20:08:27.452Z,965.12
2017-04-21T20:10:42.282Z,965.14
2017-04-21T20:12:55.231Z,965.13
2017-04-21T20:15:07.695Z,965.17
2017-04-21T20:17:20.116Z,965.16
2017-04-21T20:19:32.666Z,965.14
2017-04-21T20:21:45.608Z,965.13
2017-04-21T20:23:53.193Z,965.14
2017-04-21T20:26:05.728Z,965.13
2017-04-21T20:28:19.276Z,965.14
2017-04-21T20:30:30.450Z,965.18
2017-04-21T20:32:42.820Z,965.13
2017-04-21T20:34:56.661Z,965.12
2017-04-21T20:37:09.161Z,965.14
2017-04-21T20:39:16.842Z,965.26
2017-04-21T20:41:29.265Z,965.24
2017-04-21T20:43:41.603Z,965.18
2017-04-21T20:45:53.926Z,965.21
2017-04-21T20:48:06.287Z,965.22
2017-04-21T20:50:18.730Z,965.23
2017-04-21T20:52:31.154Z,965.21
2017-04-21T20:54:39.322Z,965.19
2017-04-21T20:56:51.763Z,965.21
2017-04-21T20:59:04.164Z,965.18
2017-04-21T21:01:16.691Z,965.2
2017-04-21T21:03:29.446Z,965.15
2017-04-21T21:05:42.084Z,965.16
2017-04-21T21:07:54.373Z,965.11
2017-04-21T21:10:06.725Z,965.12
2017-04-21T21:12:18.975Z,965.12
2017-04-21T21:14:31.334Z,965.06
2017-04-21T21:16:43.621Z,965.07
2017-04-21T21:18:55.950Z,965.07
2017-04-21T21:21:03.258Z,965.08
2017-04-21T21:23:15.615Z,965.07
2017-04-21T21:25:28.244Z,965.05
2017-04-21T21:27:40.590Z,965.04
2017-04-21T21:29:53.389Z,965
2017-04-21T21:32:05.788Z,964.99
2017-04-21T21:34:18.259Z,964.97
2017-04-21T21:36:27.120Z,964.94
2017-04-21T21:38:39.763Z,964.95
2017-04-21T21:40:42.839Z,964.95
2017-04-21T21:42:52.512Z,964.93
2017-04-21T21:45:05.263Z,964.96
2017-04-21T21:47:13.353Z,964.93
2017-04-21T21:49:23.088Z,964.92
2017-04-21T21:51:35.525Z,964.94
2017-04-21T21:53:50.415Z,964.95
2017-04-21T21:56:02.785Z,964.88
2017-04-21T21:58:10.245Z,964.96
2017-04-21T22:00:23.062Z,964.97
2017-04-21T22:02:30.435Z,964.96
2017-04-21T22:04:42.838Z,964.97
2017-04-21T22:06:56.345Z,964.97
2017-04-21T22:09:09.174Z,964.97
2017-04-21T22:11:21.791Z,964.91
2017-04-21T22:13:34.747Z,964.89
2017-04-21T22:15:37.520Z,964.89
2017-04-21T22:17:49.845Z,964.89
2017-04-21T22:20:02.247Z,964.89
2017-04-21T22:22:14.569Z,964.87
2017-04-21T22:24:26.890Z,964.87
2017-04-21T22:26:34.295Z,964.83
2017-04-21T22:28:46.693Z,964.82
2017-04-21T22:30:59.052Z,964.81
2017-04-21T22:33:11.382Z,964.78
2017-04-21T22:35:23.792Z,964.8
2017-04-21T22:37:36.047Z,964.8
2017-04-21T22:39:48.395Z,964.78
2017-04-21T22:42:00.809Z,964.76
2017-04-21T22:44:13.029Z,964.72
2017-04-21T22:46:25.404Z,964.74
2017-04-21T22:48:37.944Z,964.71
2017-04-21T22:50:50.454Z,964.73
2017-04-21T22:52:57.824Z,964.74
2017-04-21T22:55:10.111Z,964.69
2017-04-21T22:57:22.510Z,964.65
2017-04-21T22:59:29.817Z,964.63
2017-04-21T23:01:37.238Z,964.63
2017-04-21T23:03:49.619Z,964.63
2017-04-21T23:05:58.204Z,964.62
2017-04-21T23:08:11.586Z,964.57
2017-04-21T23:10:23.994Z,964.55
2017-04-21T23:12:36.335Z,964.52
2017-04-21T23:14:48.641Z,964.47
2017-04-21T23:17:01.049Z,964.47
2017-04-21T23:19:13.530Z,964.48
2017-04-21T23:21:25.832Z,964.46
2017-04-21T23:23:38.188Z,964.48
2017-04-21T23:25:50.574Z,964.43
2017-04-21T23:28:03.026Z,964.4
2017-04-21T23:30:15.564Z,964.39
2017-04-21T23:32:27.803Z,964.36
2017-04-21T23:34:35.418Z,964.33
2017-04-21T23:36:47.735Z,964.3
2017-04-21T23:38:51.473Z,964.26
2017-04-21T23:41:03.736Z,964.19
2017-04-21T23:43:11.103Z,964.17
2017-04-21T23:45:23.421Z,964.12
2017-04-21T23:47:30.738Z,964.15
2017-04-21T23:49:43.083Z,964.1
2017-04-21T23:51:55.398Z,964.14
2017-04-21T23:54:07.632Z,964.12
2017-04-21T23:56:19.898Z,964.07
2017-04-21T23:58:27.261Z,964.06
